sensor_id;sensor_type;location;lat;lon;timestamp;P1;durP1;ratioP1;P2;durP2;ratioP2
23140;SDS011;11739;54.750;9.124;2023-04-25T00:02:03;9.95;;;3.50;;
23140;SDS011;11739;54.750;9.124;2023-04-25T00:04:28;10.52;;;2.95;;
23140;SDS011;11739;54.750;9.124;2023-04-25T00:06:54;8.95;;;2.65;;
23140;SDS011;11739;54.750;9.124;2023-04-25T00:09:19;8.85;;;3.08;;
23140;SDS011;11739;54.750;9.124;2023-04-25T00:11:45;8.90;;;2.90;;
23140;SDS011;11739;54.750;9.124;2023-04-25T00:14:10;8.77;;;3.30;;
23140;SDS011;11739;54.750;9.124;2023-04-25T00:16:35;9.95;;;3.63;;
23140;SDS011;11739;54.750;9.124;2023-04-25T00:19:01;13.68;;;3.53;;
23140;SDS011;11739;54.750;9.124;2023-04-25T00:21:26;10.98;;;3.65;;
23140;SDS011;11739;54.750;9.124;2023-04-25T00:23:55;11.45;;;2.65;;
23140;SDS011;11739;54.750;9.124;2023-04-25T00:26:20;8.25;;;3.15;;
23140;SDS011;11739;54.750;9.124;2023-04-25T00:28:46;11.00;;;3.08;;
23140;SDS011;11739;54.750;9.124;2023-04-25T00:31:12;8.10;;;2.78;;
23140;SDS011;11739;54.750;9.124;2023-04-25T00:33:37;11.50;;;3.42;;
23140;SDS011;11739;54.750;9.124;2023-04-25T00:36:02;9.07;;;3.30;;
23140;SDS011;11739;54.750;9.124;2023-04-25T00:38:27;7.07;;;2.70;;
23140;SDS011;11739;54.750;9.124;2023-04-25T00:40:53;10.18;;;3.65;;
23140;SDS011;11739;54.750;9.124;2023-04-25T00:43:18;9.52;;;3.40;;
23140;SDS011;11739;54.750;9.124;2023-04-25T00:45:43;8.57;;;3.13;;
23140;SDS011;11739;54.750;9.124;2023-04-25T00:48:12;10.00;;;3.55;;
23140;SDS011;11739;54.750;9.124;2023-04-25T00:50:38;10.27;;;3.13;;
23140;SDS011;11739;54.750;9.124;2023-04-25T00:53:04;15.43;;;3.60;;
23140;SDS011;11739;54.750;9.124;2023-04-25T00:55:29;11.27;;;3.45;;
23140;SDS011;11739;54.750;9.124;2023-04-25T00:57:55;8.00;;;3.45;;
23140;SDS011;11739;54.750;9.124;2023-04-25T01:00:20;10.65;;;3.70;;
23140;SDS011;11739;54.750;9.124;2023-04-25T01:02:45;12.00;;;3.85;;
23140;SDS011;11739;54.750;9.124;2023-04-25T01:05:11;9.20;;;3.28;;
23140;SDS011;11739;54.750;9.124;2023-04-25T01:07:36;11.07;;;3.50;;
23140;SDS011;11739;54.750;9.124;2023-04-25T01:10:02;10.60;;;3.55;;
23140;SDS011;11739;54.750;9.124;2023-04-25T01:12:28;10.70;;;3.47;;
23140;SDS011;11739;54.750;9.124;2023-04-25T01:14:53;12.00;;;3.33;;
23140;SDS011;11739;54.750;9.124;2023-04-25T01:17:19;10.38;;;3.35;;
23140;SDS011;11739;54.750;9.124;2023-04-25T01:19:44;11.27;;;3.72;;
23140;SDS011;11739;54.750;9.124;2023-04-25T01:22:09;7.03;;;3.28;;
23140;SDS011;11739;54.750;9.124;2023-04-25T01:24:35;8.18;;;2.97;;
23140;SDS011;11739;54.750;9.124;2023-04-25T01:27:00;11.13;;;3.35;;
23140;SDS011;11739;54.750;9.124;2023-04-25T01:29:26;8.90;;;3.30;;
23140;SDS011;11739;54.750;9.124;2023-04-25T01:31:52;10.60;;;3.38;;
23140;SDS011;11739;54.750;9.124;2023-04-25T01:34:18;12.30;;;3.95;;
23140;SDS011;11739;54.750;9.124;2023-04-25T01:36:43;10.38;;;3.58;;
23140;SDS011;11739;54.750;9.124;2023-04-25T01:39:09;9.07;;;3.13;;
23140;SDS011;11739;54.750;9.124;2023-04-25T01:41:34;14.88;;;3.78;;
23140;SDS011;11739;54.750;9.124;2023-04-25T01:43:59;12.25;;;3.88;;
23140;SDS011;11739;54.750;9.124;2023-04-25T01:46:25;10.75;;;3.53;;
23140;SDS011;11739;54.750;9.124;2023-04-25T01:48:51;15.68;;;4.30;;
23140;SDS011;11739;54.750;9.124;2023-04-25T01:51:16;9.80;;;3.10;;
23140;SDS011;11739;54.750;9.124;2023-04-25T01:53:42;12.23;;;3.70;;
23140;SDS011;11739;54.750;9.124;2023-04-25T01:56:08;12.07;;;3.72;;
23140;SDS011;11739;54.750;9.124;2023-04-25T01:58:33;12.13;;;3.58;;
23140;SDS011;11739;54.750;9.124;2023-04-25T02:00:58;15.88;;;4.13;;
23140;SDS011;11739;54.750;9.124;2023-04-25T02:03:24;10.45;;;3.50;;
23140;SDS011;11739;54.750;9.124;2023-04-25T02:05:49;11.07;;;3.95;;
23140;SDS011;11739;54.750;9.124;2023-04-25T02:08:15;11.38;;;3.80;;
23140;SDS011;11739;54.750;9.124;2023-04-25T02:10:41;9.63;;;3.42;;
23140;SDS011;11739;54.750;9.124;2023-04-25T02:13:06;14.00;;;3.90;;
23140;SDS011;11739;54.750;9.124;2023-04-25T02:15:32;16.60;;;3.97;;
23140;SDS011;11739;54.750;9.124;2023-04-25T02:17:57;11.63;;;3.70;;
23140;SDS011;11739;54.750;9.124;2023-04-25T02:20:23;15.05;;;3.92;;
23140;SDS011;11739;54.750;9.124;2023-04-25T02:22:49;12.52;;;3.65;;
23140;SDS011;11739;54.750;9.124;2023-04-25T02:25:14;13.13;;;3.55;;
23140;SDS011;11739;54.750;9.124;2023-04-25T02:27:39;14.00;;;3.30;;
23140;SDS011;11739;54.750;9.124;2023-04-25T02:30:05;13.73;;;3.90;;
23140;SDS011;11739;54.750;9.124;2023-04-25T02:32:30;12.93;;;3.30;;
23140;SDS011;11739;54.750;9.124;2023-04-25T02:34:56;12.48;;;3.80;;
23140;SDS011;11739;54.750;9.124;2023-04-25T02:37:21;12.95;;;3.92;;
23140;SDS011;11739;54.750;9.124;2023-04-25T02:39:46;16.08;;;4.43;;
23140;SDS011;11739;54.750;9.124;2023-04-25T02:42:12;9.88;;;3.47;;
23140;SDS011;11739;54.750;9.124;2023-04-25T02:44:37;14.68;;;4.18;;
23140;SDS011;11739;54.750;9.124;2023-04-25T02:47:03;13.32;;;3.92;;
23140;SDS011;11739;54.750;9.124;2023-04-25T02:49:28;12.43;;;3.95;;
23140;SDS011;11739;54.750;9.124;2023-04-25T02:51:53;10.75;;;3.47;;
23140;SDS011;11739;54.750;9.124;2023-04-25T02:54:18;12.68;;;3.70;;
23140;SDS011;11739;54.750;9.124;2023-04-25T02:56:44;12.20;;;3.75;;
23140;SDS011;11739;54.750;9.124;2023-04-25T02:59:09;14.50;;;3.58;;
23140;SDS011;11739;54.750;9.124;2023-04-25T03:01:34;14.15;;;3.60;;
23140;SDS011;11739;54.750;9.124;2023-04-25T03:04:00;14.40;;;3.90;;
23140;SDS011;11739;54.750;9.124;2023-04-25T03:06:25;12.93;;;4.15;;
23140;SDS011;11739;54.750;9.124;2023-04-25T03:08:50;13.52;;;3.83;;
23140;SDS011;11739;54.750;9.124;2023-04-25T03:11:16;11.45;;;3.55;;
23140;SDS011;11739;54.750;9.124;2023-04-25T03:13:41;10.80;;;3.58;;
23140;SDS011;11739;54.750;9.124;2023-04-25T03:16:06;13.73;;;3.80;;
23140;SDS011;11739;54.750;9.124;2023-04-25T03:18:31;10.95;;;3.22;;
23140;SDS011;11739;54.750;9.124;2023-04-25T03:20:57;11.70;;;3.42;;
23140;SDS011;11739;54.750;9.124;2023-04-25T03:23:22;11.82;;;3.67;;
23140;SDS011;11739;54.750;9.124;2023-04-25T03:25:47;14.07;;;4.05;;
23140;SDS011;11739;54.750;9.124;2023-04-25T03:28:13;10.00;;;3.53;;
23140;SDS011;11739;54.750;9.124;2023-04-25T03:30:39;9.23;;;3.00;;
23140;SDS011;11739;54.750;9.124;2023-04-25T03:33:04;8.52;;;3.08;;
23140;SDS011;11739;54.750;9.124;2023-04-25T03:35:30;9.73;;;3.13;;
23140;SDS011;11739;54.750;9.124;2023-04-25T03:37:55;9.52;;;2.80;;
23140;SDS011;11739;54.750;9.124;2023-04-25T03:40:20;11.02;;;3.00;;
23140;SDS011;11739;54.750;9.124;2023-04-25T03:42:46;11.20;;;3.15;;
23140;SDS011;11739;54.750;9.124;2023-04-25T03:45:11;11.45;;;3.58;;
23140;SDS011;11739;54.750;9.124;2023-04-25T03:47:36;8.32;;;2.90;;
23140;SDS011;11739;54.750;9.124;2023-04-25T03:50:01;13.70;;;3.20;;
23140;SDS011;11739;54.750;9.124;2023-04-25T03:52:27;10.13;;;3.58;;
23140;SDS011;11739;54.750;9.124;2023-04-25T03:54:52;11.75;;;3.13;;
23140;SDS011;11739;54.750;9.124;2023-04-25T03:57:17;11.95;;;3.25;;
23140;SDS011;11739;54.750;9.124;2023-04-25T03:59:43;12.05;;;3.22;;
23140;SDS011;11739;54.750;9.124;2023-04-25T04:02:08;9.13;;;3.60;;
23140;SDS011;11739;54.750;9.124;2023-04-25T04:04:33;8.45;;;3.15;;
23140;SDS011;11739;54.750;9.124;2023-04-25T04:06:59;9.20;;;3.22;;
23140;SDS011;11739;54.750;9.124;2023-04-25T04:09:24;14.40;;;3.45;;
23140;SDS011;11739;54.750;9.124;2023-04-25T04:11:49;15.15;;;3.90;;
23140;SDS011;11739;54.750;9.124;2023-04-25T04:14:14;10.38;;;3.78;;
23140;SDS011;11739;54.750;9.124;2023-04-25T04:16:40;10.13;;;3.28;;
23140;SDS011;11739;54.750;9.124;2023-04-25T04:19:05;10.32;;;3.60;;
23140;SDS011;11739;54.750;9.124;2023-04-25T04:21:30;11.93;;;3.50;;
23140;SDS011;11739;54.750;9.124;2023-04-25T04:23:56;9.60;;;2.88;;
23140;SDS011;11739;54.750;9.124;2023-04-25T04:26:21;9.30;;;3.40;;
23140;SDS011;11739;54.750;9.124;2023-04-25T04:28:46;8.52;;;2.95;;
23140;SDS011;11739;54.750;9.124;2023-04-25T04:31:12;7.88;;;2.95;;
23140;SDS011;11739;54.750;9.124;2023-04-25T04:33:37;10.80;;;3.30;;
23140;SDS011;11739;54.750;9.124;2023-04-25T04:36:03;7.22;;;2.50;;
23140;SDS011;11739;54.750;9.124;2023-04-25T04:38:28;11.07;;;3.25;;
23140;SDS011;11739;54.750;9.124;2023-04-25T04:40:54;10.88;;;3.35;;
23140;SDS011;11739;54.750;9.124;2023-04-25T04:43:19;10.13;;;3.45;;
23140;SDS011;11739;54.750;9.124;2023-04-25T04:45:45;9.23;;;3.08;;
23140;SDS011;11739;54.750;9.124;2023-04-25T04:48:10;15.65;;;3.35;;
23140;SDS011;11739;54.750;9.124;2023-04-25T04:50:35;8.57;;;3.40;;
23140;SDS011;11739;54.750;9.124;2023-04-25T04:53:01;13.43;;;3.55;;
23140;SDS011;11739;54.750;9.124;2023-04-25T04:55:26;10.48;;;3.30;;
23140;SDS011;11739;54.750;9.124;2023-04-25T04:57:52;9.77;;;3.20;;
23140;SDS011;11739;54.750;9.124;2023-04-25T05:00:17;11.02;;;3.33;;
23140;SDS011;11739;54.750;9.124;2023-04-25T05:02:43;10.60;;;3.30;;
23140;SDS011;11739;54.750;9.124;2023-04-25T05:05:08;8.65;;;2.80;;
23140;SDS011;11739;54.750;9.124;2023-04-25T05:07:33;7.32;;;2.67;;
23140;SDS011;11739;54.750;9.124;2023-04-25T05:09:59;8.73;;;3.22;;
23140;SDS011;11739;54.750;9.124;2023-04-25T05:12:24;10.90;;;3.20;;
23140;SDS011;11739;54.750;9.124;2023-04-25T05:14:49;8.15;;;3.45;;
23140;SDS011;11739;54.750;9.124;2023-04-25T05:17:15;10.50;;;3.45;;
23140;SDS011;11739;54.750;9.124;2023-04-25T05:19:40;9.88;;;2.65;;
23140;SDS011;11739;54.750;9.124;2023-04-25T05:22:05;10.07;;;3.40;;
23140;SDS011;11739;54.750;9.124;2023-04-25T05:24:31;11.88;;;3.17;;
23140;SDS011;11739;54.750;9.124;2023-04-25T05:26:56;12.27;;;3.40;;
23140;SDS011;11739;54.750;9.124;2023-04-25T05:29:21;9.25;;;3.45;;
23140;SDS011;11739;54.750;9.124;2023-04-25T05:31:47;9.27;;;3.00;;
23140;SDS011;11739;54.750;9.124;2023-04-25T05:34:12;12.88;;;2.92;;
23140;SDS011;11739;54.750;9.124;2023-04-25T05:36:37;12.63;;;3.40;;
23140;SDS011;11739;54.750;9.124;2023-04-25T05:39:03;10.43;;;3.08;;
23140;SDS011;11739;54.750;9.124;2023-04-25T05:41:28;16.10;;;3.83;;
23140;SDS011;11739;54.750;9.124;2023-04-25T05:43:53;11.23;;;3.33;;
23140;SDS011;11739;54.750;9.124;2023-04-25T05:46:18;15.75;;;3.33;;
23140;SDS011;11739;54.750;9.124;2023-04-25T05:48:44;13.10;;;3.67;;
23140;SDS011;11739;54.750;9.124;2023-04-25T05:51:09;10.98;;;3.17;;
23140;SDS011;11739;54.750;9.124;2023-04-25T05:53:35;11.70;;;3.50;;
23140;SDS011;11739;54.750;9.124;2023-04-25T05:56:01;11.30;;;3.53;;
23140;SDS011;11739;54.750;9.124;2023-04-25T05:58:26;12.23;;;3.70;;
23140;SDS011;11739;54.750;9.124;2023-04-25T06:00:51;9.32;;;3.40;;
23140;SDS011;11739;54.750;9.124;2023-04-25T06:03:16;7.90;;;3.10;;
23140;SDS011;11739;54.750;9.124;2023-04-25T06:05:42;10.88;;;3.22;;
23140;SDS011;11739;54.750;9.124;2023-04-25T06:08:07;12.70;;;3.42;;
23140;SDS011;11739;54.750;9.124;2023-04-25T06:10:33;10.05;;;3.20;;
23140;SDS011;11739;54.750;9.124;2023-04-25T06:12:58;10.98;;;2.67;;
23140;SDS011;11739;54.750;9.124;2023-04-25T06:15:23;12.02;;;3.13;;
23140;SDS011;11739;54.750;9.124;2023-04-25T06:17:49;8.60;;;2.58;;
23140;SDS011;11739;54.750;9.124;2023-04-25T06:20:14;8.27;;;3.10;;
23140;SDS011;11739;54.750;9.124;2023-04-25T06:22:39;8.30;;;3.13;;
23140;SDS011;11739;54.750;9.124;2023-04-25T06:25:05;9.48;;;2.65;;
23140;SDS011;11739;54.750;9.124;2023-04-25T06:27:30;7.50;;;2.85;;
23140;SDS011;11739;54.750;9.124;2023-04-25T06:29:55;10.50;;;3.03;;
23140;SDS011;11739;54.750;9.124;2023-04-25T06:32:21;7.70;;;2.88;;
23140;SDS011;11739;54.750;9.124;2023-04-25T06:34:46;10.98;;;3.10;;
23140;SDS011;11739;54.750;9.124;2023-04-25T06:37:11;14.30;;;3.38;;
23140;SDS011;11739;54.750;9.124;2023-04-25T06:39:37;10.00;;;3.10;;
23140;SDS011;11739;54.750;9.124;2023-04-25T06:42:02;10.95;;;3.10;;
23140;SDS011;11739;54.750;9.124;2023-04-25T06:44:27;7.18;;;2.17;;
23140;SDS011;11739;54.750;9.124;2023-04-25T06:46:53;6.32;;;2.50;;
23140;SDS011;11739;54.750;9.124;2023-04-25T06:49:18;7.78;;;2.90;;
23140;SDS011;11739;54.750;9.124;2023-04-25T06:51:43;7.03;;;2.38;;
23140;SDS011;11739;54.750;9.124;2023-04-25T06:54:08;9.90;;;3.10;;
23140;SDS011;11739;54.750;9.124;2023-04-25T06:56:34;11.38;;;3.10;;
23140;SDS011;11739;54.750;9.124;2023-04-25T06:58:59;9.43;;;2.67;;
23140;SDS011;11739;54.750;9.124;2023-04-25T07:01:24;9.77;;;2.95;;
23140;SDS011;11739;54.750;9.124;2023-04-25T07:03:50;12.70;;;3.53;;
23140;SDS011;11739;54.750;9.124;2023-04-25T07:06:15;11.07;;;2.97;;
23140;SDS011;11739;54.750;9.124;2023-04-25T07:08:40;7.05;;;2.55;;
23140;SDS011;11739;54.750;9.124;2023-04-25T07:11:06;10.00;;;2.88;;
23140;SDS011;11739;54.750;9.124;2023-04-25T07:13:31;8.88;;;2.65;;
23140;SDS011;11739;54.750;9.124;2023-04-25T07:15:56;10.00;;;2.45;;
23140;SDS011;11739;54.750;9.124;2023-04-25T07:18:21;7.18;;;2.50;;
23140;SDS011;11739;54.750;9.124;2023-04-25T07:20:47;8.63;;;2.70;;
23140;SDS011;11739;54.750;9.124;2023-04-25T07:23:12;8.02;;;2.63;;
23140;SDS011;11739;54.750;9.124;2023-04-25T07:25:37;9.07;;;2.17;;
23140;SDS011;11739;54.750;9.124;2023-04-25T07:28:03;9.23;;;2.85;;
23140;SDS011;11739;54.750;9.124;2023-04-25T07:30:28;9.18;;;2.80;;
23140;SDS011;11739;54.750;9.124;2023-04-25T07:32:53;9.07;;;2.65;;
23140;SDS011;11739;54.750;9.124;2023-04-25T07:35:19;9.02;;;3.30;;
23140;SDS011;11739;54.750;9.124;2023-04-25T07:37:44;11.43;;;3.20;;
23140;SDS011;11739;54.750;9.124;2023-04-25T07:40:09;11.07;;;2.72;;
23140;SDS011;11739;54.750;9.124;2023-04-25T07:42:35;11.40;;;2.95;;
23140;SDS011;11739;54.750;9.124;2023-04-25T07:45:00;8.48;;;2.75;;
23140;SDS011;11739;54.750;9.124;2023-04-25T07:47:26;12.07;;;2.78;;
23140;SDS011;11739;54.750;9.124;2023-04-25T07:49:51;7.03;;;2.80;;
23140;SDS011;11739;54.750;9.124;2023-04-25T07:52:16;8.15;;;2.70;;
23140;SDS011;11739;54.750;9.124;2023-04-25T07:54:42;9.43;;;2.88;;
23140;SDS011;11739;54.750;9.124;2023-04-25T07:57:07;8.27;;;2.63;;
23140;SDS011;11739;54.750;9.124;2023-04-25T07:59:32;8.57;;;3.00;;
23140;SDS011;11739;54.750;9.124;2023-04-25T08:01:57;13.80;;;3.38;;
23140;SDS011;11739;54.750;9.124;2023-04-25T08:04:23;8.95;;;2.92;;
23140;SDS011;11739;54.750;9.124;2023-04-25T08:06:49;9.20;;;2.80;;
23140;SDS011;11739;54.750;9.124;2023-04-25T08:09:14;13.40;;;3.60;;
23140;SDS011;11739;54.750;9.124;2023-04-25T08:11:39;13.73;;;3.38;;
23140;SDS011;11739;54.750;9.124;2023-04-25T08:14:05;8.93;;;2.97;;
23140;SDS011;11739;54.750;9.124;2023-04-25T08:16:30;11.75;;;2.88;;
23140;SDS011;11739;54.750;9.124;2023-04-25T08:18:55;9.93;;;2.42;;
23140;SDS011;11739;54.750;9.124;2023-04-25T08:21:21;7.07;;;2.17;;
23140;SDS011;11739;54.750;9.124;2023-04-25T08:23:46;7.47;;;2.15;;
23140;SDS011;11739;54.750;9.124;2023-04-25T08:26:11;7.30;;;2.42;;
23140;SDS011;11739;54.750;9.124;2023-04-25T08:28:37;8.23;;;2.35;;
23140;SDS011;11739;54.750;9.124;2023-04-25T08:31:02;7.22;;;2.30;;
23140;SDS011;11739;54.750;9.124;2023-04-25T08:33:27;7.22;;;2.35;;
23140;SDS011;11739;54.750;9.124;2023-04-25T08:35:53;7.28;;;2.20;;
23140;SDS011;11739;54.750;9.124;2023-04-25T08:38:18;5.70;;;2.10;;
23140;SDS011;11739;54.750;9.124;2023-04-25T08:40:43;6.80;;;2.10;;
23140;SDS011;11739;54.750;9.124;2023-04-25T08:43:09;5.53;;;2.20;;
23140;SDS011;11739;54.750;9.124;2023-04-25T08:45:38;7.60;;;2.30;;
23140;SDS011;11739;54.750;9.124;2023-04-25T08:48:04;7.38;;;2.30;;
23140;SDS011;11739;54.750;9.124;2023-04-25T08:50:32;9.00;;;2.58;;
23140;SDS011;11739;54.750;9.124;2023-04-25T08:52:57;9.60;;;2.80;;
23140;SDS011;11739;54.750;9.124;2023-04-25T08:55:24;11.85;;;3.38;;
23140;SDS011;11739;54.750;9.124;2023-04-25T08:57:50;9.65;;;2.85;;
23140;SDS011;11739;54.750;9.124;2023-04-25T09:00:16;8.50;;;3.20;;
23140;SDS011;11739;54.750;9.124;2023-04-25T09:02:42;10.15;;;2.40;;
23140;SDS011;11739;54.750;9.124;2023-04-25T09:05:07;10.43;;;2.90;;
23140;SDS011;11739;54.750;9.124;2023-04-25T09:07:34;12.20;;;3.33;;
23140;SDS011;11739;54.750;9.124;2023-04-25T09:09:59;12.23;;;3.30;;
23140;SDS011;11739;54.750;9.124;2023-04-25T09:12:24;7.18;;;2.85;;
23140;SDS011;11739;54.750;9.124;2023-04-25T09:17:34;10.55;;;3.25;;
23140;SDS011;11739;54.750;9.124;2023-04-25T09:20:07;10.55;;;3.10;;
23140;SDS011;11739;54.750;9.124;2023-04-25T09:22:34;10.40;;;2.95;;
23140;SDS011;11739;54.750;9.124;2023-04-25T09:25:01;8.73;;;2.45;;
23140;SDS011;11739;54.750;9.124;2023-04-25T09:27:28;10.40;;;3.15;;
23140;SDS011;11739;54.750;9.124;2023-04-25T09:29:59;11.10;;;3.10;;
23140;SDS011;11739;54.750;9.124;2023-04-25T09:32:24;7.70;;;2.55;;
23140;SDS011;11739;54.750;9.124;2023-04-25T09:34:51;8.52;;;2.80;;
23140;SDS011;11739;54.750;9.124;2023-04-25T09:37:20;7.93;;;2.20;;
23140;SDS011;11739;54.750;9.124;2023-04-25T09:39:47;9.00;;;2.80;;
23140;SDS011;11739;54.750;9.124;2023-04-25T09:42:14;8.90;;;2.50;;
23140;SDS011;11739;54.750;9.124;2023-04-25T09:44:44;7.57;;;2.75;;
23140;SDS011;11739;54.750;9.124;2023-04-25T09:47:10;7.32;;;2.63;;
23140;SDS011;11739;54.750;9.124;2023-04-25T09:49:38;8.55;;;2.53;;
23140;SDS011;11739;54.750;9.124;2023-04-25T09:52:04;7.00;;;2.58;;
23140;SDS011;11739;54.750;9.124;2023-04-25T09:54:29;9.32;;;2.78;;
23140;SDS011;11739;54.750;9.124;2023-04-25T09:56:55;10.32;;;3.15;;
23140;SDS011;11739;54.750;9.124;2023-04-25T09:59:21;10.80;;;2.70;;
23140;SDS011;11739;54.750;9.124;2023-04-25T10:01:46;7.50;;;2.42;;
23140;SDS011;11739;54.750;9.124;2023-04-25T10:04:13;10.30;;;2.65;;
23140;SDS011;11739;54.750;9.124;2023-04-25T10:06:43;5.65;;;2.38;;
23140;SDS011;11739;54.750;9.124;2023-04-25T10:09:09;12.00;;;2.80;;
23140;SDS011;11739;54.750;9.124;2023-04-25T10:11:34;8.35;;;2.78;;
23140;SDS011;11739;54.750;9.124;2023-04-25T10:14:00;6.85;;;2.47;;
23140;SDS011;11739;54.750;9.124;2023-04-25T10:16:25;5.63;;;2.38;;
23140;SDS011;11739;54.750;9.124;2023-04-25T10:18:50;9.57;;;2.65;;
23140;SDS011;11739;54.750;9.124;2023-04-25T10:21:16;9.07;;;2.67;;
23140;SDS011;11739;54.750;9.124;2023-04-25T10:23:43;9.10;;;2.70;;
23140;SDS011;11739;54.750;9.124;2023-04-25T10:26:09;8.73;;;2.20;;
23140;SDS011;11739;54.750;9.124;2023-04-25T10:31:25;7.55;;;2.45;;
23140;SDS011;11739;54.750;9.124;2023-04-25T10:33:50;9.07;;;3.28;;
23140;SDS011;11739;54.750;9.124;2023-04-25T10:36:19;12.63;;;2.70;;
23140;SDS011;11739;54.750;9.124;2023-04-25T10:38:48;7.60;;;2.92;;
23140;SDS011;11739;54.750;9.124;2023-04-25T10:41:15;8.65;;;3.50;;
23140;SDS011;11739;54.750;9.124;2023-04-25T10:43:43;6.57;;;2.90;;
23140;SDS011;11739;54.750;9.124;2023-04-25T10:46:16;7.32;;;2.83;;
23140;SDS011;11739;54.750;9.124;2023-04-25T10:48:47;10.45;;;3.05;;
23140;SDS011;11739;54.750;9.124;2023-04-25T10:51:16;11.75;;;3.38;;
23140;SDS011;11739;54.750;9.124;2023-04-25T10:53:43;7.40;;;2.17;;
23140;SDS011;11739;54.750;9.124;2023-04-25T10:56:30;7.90;;;2.72;;
23140;SDS011;11739;54.750;9.124;2023-04-25T10:59:11;7.07;;;2.65;;
23140;SDS011;11739;54.750;9.124;2023-04-25T11:01:38;8.43;;;2.63;;
23140;SDS011;11739;54.750;9.124;2023-04-25T11:04:04;11.90;;;2.80;;
23140;SDS011;11739;54.750;9.124;2023-04-25T11:07:04;8.43;;;2.50;;
23140;SDS011;11739;54.750;9.124;2023-04-25T11:09:28;9.32;;;2.92;;
23140;SDS011;11739;54.750;9.124;2023-04-25T11:11:54;9.43;;;2.50;;
23140;SDS011;11739;54.750;9.124;2023-04-25T11:14:20;7.78;;;2.65;;
23140;SDS011;11739;54.750;9.124;2023-04-25T11:16:45;9.82;;;2.70;;
23140;SDS011;11739;54.750;9.124;2023-04-25T11:19:10;9.90;;;3.10;;
23140;SDS011;11739;54.750;9.124;2023-04-25T11:21:35;7.85;;;2.90;;
23140;SDS011;11739;54.750;9.124;2023-04-25T11:24:01;9.95;;;2.50;;
23140;SDS011;11739;54.750;9.124;2023-04-25T11:26:27;6.93;;;2.63;;
23140;SDS011;11739;54.750;9.124;2023-04-25T11:28:56;8.63;;;2.47;;
23140;SDS011;11739;54.750;9.124;2023-04-25T11:31:22;9.38;;;3.08;;
23140;SDS011;11739;54.750;9.124;2023-04-25T11:33:49;6.25;;;2.33;;
23140;SDS011;11739;54.750;9.124;2023-04-25T11:36:15;7.28;;;2.75;;
23140;SDS011;11739;54.750;9.124;2023-04-25T11:38:40;5.38;;;2.17;;
23140;SDS011;11739;54.750;9.124;2023-04-25T11:41:05;6.20;;;2.20;;
23140;SDS011;11739;54.750;9.124;2023-04-25T11:43:30;5.22;;;2.10;;
23140;SDS011;11739;54.750;9.124;2023-04-25T11:45:56;6.65;;;2.50;;
23140;SDS011;11739;54.750;9.124;2023-04-25T11:48:21;7.57;;;2.28;;
23140;SDS011;11739;54.750;9.124;2023-04-25T11:50:46;6.57;;;2.22;;
23140;SDS011;11739;54.750;9.124;2023-04-25T11:53:12;5.78;;;2.25;;
23140;SDS011;11739;54.750;9.124;2023-04-25T11:55:37;5.97;;;2.42;;
23140;SDS011;11739;54.750;9.124;2023-04-25T11:58:03;6.85;;;2.58;;
23140;SDS011;11739;54.750;9.124;2023-04-25T12:00:29;7.63;;;2.58;;
23140;SDS011;11739;54.750;9.124;2023-04-25T12:02:55;5.32;;;2.22;;
23140;SDS011;11739;54.750;9.124;2023-04-25T12:05:30;8.88;;;2.60;;
23140;SDS011;11739;54.750;9.124;2023-04-25T12:07:56;9.48;;;2.40;;
23140;SDS011;11739;54.750;9.124;2023-04-25T12:10:21;7.13;;;2.53;;
23140;SDS011;11739;54.750;9.124;2023-04-25T12:12:47;8.43;;;2.50;;
23140;SDS011;11739;54.750;9.124;2023-04-25T12:15:16;7.93;;;2.22;;
23140;SDS011;11739;54.750;9.124;2023-04-25T12:17:46;6.30;;;2.35;;
23140;SDS011;11739;54.750;9.124;2023-04-25T12:20:13;8.18;;;2.40;;
23140;SDS011;11739;54.750;9.124;2023-04-25T12:22:43;9.45;;;2.38;;
23140;SDS011;11739;54.750;9.124;2023-04-25T12:25:10;7.25;;;2.35;;
23140;SDS011;11739;54.750;9.124;2023-04-25T12:27:54;7.25;;;2.28;;
23140;SDS011;11739;54.750;9.124;2023-04-25T12:30:19;8.90;;;2.53;;
23140;SDS011;11739;54.750;9.124;2023-04-25T12:32:44;6.57;;;2.17;;
23140;SDS011;11739;54.750;9.124;2023-04-25T12:35:09;7.10;;;2.67;;
23140;SDS011;11739;54.750;9.124;2023-04-25T12:37:35;10.20;;;2.30;;
23140;SDS011;11739;54.750;9.124;2023-04-25T12:40:00;5.85;;;2.40;;
23140;SDS011;11739;54.750;9.124;2023-04-25T12:42:25;5.93;;;2.30;;
23140;SDS011;11739;54.750;9.124;2023-04-25T12:44:51;6.25;;;2.50;;
23140;SDS011;11739;54.750;9.124;2023-04-25T12:47:16;8.63;;;2.28;;
23140;SDS011;11739;54.750;9.124;2023-04-25T12:49:41;7.38;;;2.30;;
23140;SDS011;11739;54.750;9.124;2023-04-25T12:52:07;7.07;;;2.42;;
23140;SDS011;11739;54.750;9.124;2023-04-25T12:54:32;7.03;;;2.08;;
23140;SDS011;11739;54.750;9.124;2023-04-25T12:56:57;6.88;;;2.47;;
23140;SDS011;11739;54.750;9.124;2023-04-25T12:59:22;5.32;;;2.05;;
23140;SDS011;11739;54.750;9.124;2023-04-25T13:01:48;5.68;;;2.22;;
23140;SDS011;11739;54.750;9.124;2023-04-25T13:04:13;6.85;;;2.50;;
23140;SDS011;11739;54.750;9.124;2023-04-25T13:06:38;8.10;;;2.55;;
23140;SDS011;11739;54.750;9.124;2023-04-25T13:09:04;9.15;;;2.30;;
23140;SDS011;11739;54.750;9.124;2023-04-25T13:11:29;7.68;;;2.30;;
23140;SDS011;11739;54.750;9.124;2023-04-25T13:13:55;8.23;;;2.63;;
23140;SDS011;11739;54.750;9.124;2023-04-25T13:16:20;6.95;;;2.35;;
23140;SDS011;11739;54.750;9.124;2023-04-25T13:18:45;7.50;;;2.58;;
23140;SDS011;11739;54.750;9.124;2023-04-25T13:21:11;6.55;;;2.13;;
23140;SDS011;11739;54.750;9.124;2023-04-25T13:23:36;6.55;;;2.30;;
23140;SDS011;11739;54.750;9.124;2023-04-25T13:26:01;7.80;;;2.40;;
23140;SDS011;11739;54.750;9.124;2023-04-25T13:28:27;7.63;;;2.30;;
23140;SDS011;11739;54.750;9.124;2023-04-25T13:30:52;8.20;;;2.45;;
23140;SDS011;11739;54.750;9.124;2023-04-25T13:33:18;8.30;;;2.60;;
23140;SDS011;11739;54.750;9.124;2023-04-25T13:35:44;6.97;;;2.53;;
23140;SDS011;11739;54.750;9.124;2023-04-25T13:38:09;6.65;;;2.30;;
23140;SDS011;11739;54.750;9.124;2023-04-25T13:40:34;5.10;;;2.38;;
23140;SDS011;11739;54.750;9.124;2023-04-25T13:43:00;6.13;;;2.83;;
23140;SDS011;11739;54.750;9.124;2023-04-25T13:45:26;4.93;;;2.47;;
23140;SDS011;11739;54.750;9.124;2023-04-25T13:47:51;6.15;;;2.40;;
23140;SDS011;11739;54.750;9.124;2023-04-25T13:50:16;7.82;;;2.65;;
23140;SDS011;11739;54.750;9.124;2023-04-25T13:52:42;4.80;;;2.05;;
23140;SDS011;11739;54.750;9.124;2023-04-25T13:55:08;6.22;;;2.70;;
23140;SDS011;11739;54.750;9.124;2023-04-25T13:57:33;5.35;;;2.25;;
23140;SDS011;11739;54.750;9.124;2023-04-25T13:59:59;7.65;;;2.40;;
23140;SDS011;11739;54.750;9.124;2023-04-25T14:02:24;7.43;;;2.45;;
23140;SDS011;11739;54.750;9.124;2023-04-25T14:04:50;6.78;;;2.30;;
23140;SDS011;11739;54.750;9.124;2023-04-25T14:07:15;7.78;;;2.45;;
23140;SDS011;11739;54.750;9.124;2023-04-25T14:09:40;7.43;;;2.72;;
23140;SDS011;11739;54.750;9.124;2023-04-25T14:12:06;5.18;;;2.50;;
23140;SDS011;11739;54.750;9.124;2023-04-25T14:14:31;6.68;;;2.55;;
23140;SDS011;11739;54.750;9.124;2023-04-25T14:16:56;7.68;;;2.63;;
23140;SDS011;11739;54.750;9.124;2023-04-25T14:19:21;7.00;;;2.40;;
23140;SDS011;11739;54.750;9.124;2023-04-25T14:21:47;5.38;;;2.28;;
23140;SDS011;11739;54.750;9.124;2023-04-25T14:24:13;8.20;;;2.20;;
23140;SDS011;11739;54.750;9.124;2023-04-25T14:26:38;7.90;;;2.45;;
23140;SDS011;11739;54.750;9.124;2023-04-25T14:29:06;7.20;;;2.45;;
23140;SDS011;11739;54.750;9.124;2023-04-25T14:31:32;6.50;;;2.50;;
23140;SDS011;11739;54.750;9.124;2023-04-25T14:33:58;6.38;;;2.17;;
23140;SDS011;11739;54.750;9.124;2023-04-25T14:36:23;7.35;;;2.28;;
23140;SDS011;11739;54.750;9.124;2023-04-25T14:38:49;8.38;;;2.55;;
23140;SDS011;11739;54.750;9.124;2023-04-25T14:41:14;8.50;;;2.40;;